Time;durP1;ratioP1;P1;durP2;ratioP2;P2;SDS_P1;SDS_P2;PMS_P1;PMS_P2;Temp;Humidity;BMP_temperature;BMP_pressure;BME280_temperature;BME280_humidity;BME280_pressure;Samples;Min_cycle;Max_cycle;Signal;HPM_P1;HPM_P2
2021/08/02 00:01:15;;;;;;;0.35;0.35;;;;;;;15.33;47.42;92220.16;4847589;29;20041;-93
2021/08/02 00:04:24;;;;;;;0.20;0.20;;;;;;;14.95;46.61;92165.66;4768978;29;20054;-94
2021/08/02 00:07:14;;;;;;;0.35;0.35;;;;;;;15.14;46.98;92200.28;4769608;30;20051;-93
2021/08/02 00:09:57;;;;;;;0.43;0.43;;;;;;;14.89;47.44;92164.34;4861246;29;20419;-93
2021/08/02 00:12:37;;;;;;;0.28;0.28;;;;;;;14.86;48.22;92159.69;4853380;29;20124;-93
2021/08/02 00:15:12;;;;;;;0.20;0.20;;;;;;;14.82;47.13;92151.66;4844585;29;20046;-93
2021/08/02 00:18:11;;;;;;;0.20;0.20;;;;;;;15.12;47.06;92201.69;4855402;29;20546;-92
2021/08/02 00:20:48;;;;;;;0.52;0.52;;;;;;;15.04;46.98;92187.50;4845711;29;20041;-93
2021/08/02 00:23:24;;;;;;;0.82;0.50;;;;;;;14.84;46.67;92156.59;4842693;29;20049;-93
2021/08/02 00:26:02;;;;;;;0.35;0.35;;;;;;;14.86;46.81;92160.47;4838768;29;20108;-92
2021/08/02 00:28:49;;;;;;;0.20;0.20;;;;;;;14.91;46.77;92159.53;4846792;29;20057;-92
2021/08/02 00:31:19;;;;;;;0.30;0.30;;;;;;;14.87;47.39;92156.75;4837524;29;20134;-93
2021/08/02 00:34:07;;;;;;;;;;;;;;;;;;;;;
2021/08/02 00:37:12;;;;;;;0.35;0.35;;;;;;;14.80;47.77;92161.75;4860208;29;20045;-91
2021/08/02 00:39:54;;;;;;;0.20;0.20;;;;;;;15.11;48.22;92203.56;4838346;29;20051;-94
2021/08/02 00:42:40;;;;;;;0.73;0.60;;;;;;;14.92;47.93;92196.06;4860613;29;20053;-92
2021/08/02 00:45:44;;;;;;;0.20;0.20;;;;;;;14.72;47.70;92165.97;4845247;29;20055;-93
2021/08/02 00:48:25;;;;;;;0.40;0.40;;;;;;;14.67;47.76;92152.97;4848807;29;20158;-91
2021/08/02 00:50:58;;;;;;;0.68;0.68;;;;;;;14.67;47.86;92163.53;4860583;29;20056;-93
2021/08/02 00:53:39;;;;;;;0.40;0.40;;;;;;;14.73;47.29;92162.25;4858542;29;20455;-93
2021/08/02 00:56:12;;;;;;;0.47;0.47;;;;;;;14.67;47.77;92171.41;4848604;29;20454;-91
2021/08/02 00:59:10;;;;;;;;;;;;;;;;;;;;;
2021/08/02 01:02:03;;;;;;;;;;;;;;;;;;;;;
2021/08/02 01:04:54;;;;;;;0.30;0.30;;;;;;;15.09;47.63;92208.38;4875953;29;20116;-93
2021/08/02 01:07:55;;;;;;;0.30;0.30;;;;;;;14.95;47.36;92184.13;4843991;29;20518;-92
2021/08/02 01:10:25;;;;;;;0.30;0.30;;;;;;;14.85;47.00;92158.91;4833723;29;20049;-91
2021/08/02 01:13:11;;;;;;;0.40;0.40;;;;;;;14.74;47.45;92147.97;4843586;29;20045;-94
2021/08/02 01:15:58;;;;;;;0.28;0.28;;;;;;;14.81;46.69;92141.44;4857737;29;20072;-93
2021/08/02 01:18:56;;;;;;;;;;;;;;;;;;;;;
2021/08/02 01:22:06;;;;;;;0.30;0.30;;;;;;;14.80;46.85;92119.59;4845544;29;20488;-93
2021/08/02 01:24:59;;;;;;;0.68;0.68;;;;;;;15.01;46.50;92145.94;4842738;29;20051;-91
2021/08/02 01:27:47;;;;;;;0.30;0.30;;;;;;;15.11;47.37;92174.56;4861657;29;20065;-93
2021/08/02 01:30:35;;;;;;;0.30;0.30;;;;;;;14.70;47.30;92118.13;4843187;29;20056;-92
2021/08/02 01:33:31;;;;;;;0.30;0.30;;;;;;;14.84;47.86;92161.88;4808940;29;20061;-92
2021/08/02 01:36:14;;;;;;;0.40;0.40;;;;;;;14.66;46.95;92137.47;4858831;29;20080;-92
2021/08/02 01:39:02;;;;;;;0.30;0.30;;;;;;;14.69;46.57;92140.25;4862684;29;20365;-92
2021/08/02 01:41:35;;;;;;;0.20;0.20;;;;;;;14.67;47.30;92131.91;4841622;29;20053;-92
2021/08/02 01:44:05;;;;;;;;;;;;;;;15.08;45.93;92183.09;4810406;29;20536;-93
2021/08/02 01:46:53;;;;;;;0.20;0.20;;;;;;;14.61;46.79;92127.13;4840386;29;20022;-93
2021/08/02 01:49:48;;;;;;;0.32;0.32;;;;;;;14.64;46.89;92142.31;4844683;29;20052;-93
2021/08/02 01:52:38;;;;;;;0.30;0.30;;;;;;;15.05;46.06;92204.06;4856032;29;20114;-92
2021/08/02 01:55:23;;;;;;;0.60;0.43;;;;;;;14.82;45.66;92159.56;4854789;29;20047;-92
2021/08/02 01:58:24;;;;;;;0.50;0.50;;;;;;;15.07;46.19;92196.63;4843937;29;20087;-94
2021/08/02 02:01:00;;;;;;;0.50;0.50;;;;;;;14.69;46.59;92166.59;4839121;29;20131;-93
2021/08/02 02:06:59;;;;;;;;;;;;;;;;;;;;;
2021/08/02 02:09:56;;;;;;;0.30;0.30;;;;;;;14.45;47.43;92151.34;4841511;29;20052;-92
2021/08/02 02:13:05;;;;;;;;;;;;;;;;;;;;;
2021/08/02 02:16:03;;;;;;;0.43;0.43;;;;;;;14.57;48.23;92191.00;4843312;29;20037;-92
2021/08/02 02:18:53;;;;;;;;;;;;;;;;;;;;;
2021/08/02 02:21:35;;;;;;;0.60;0.60;;;;;;;14.36;47.96;92175.13;4842598;29;20077;-94
2021/08/02 02:24:33;;;;;;;0.80;0.47;;;;;;;14.36;48.50;92183.03;4826983;29;20048;-92
2021/08/02 02:27:24;;;;;;;0.20;0.20;;;;;;;14.57;48.93;92221.84;4829641;29;20518;-94
2021/08/02 02:30:18;;;;;;;0.88;0.85;;;;;;;14.21;48.83;92180.91;4812901;29;20058;-92
2021/08/02 02:33:03;;;;;;;0.30;0.30;;;;;;;14.32;48.53;92199.75;4842165;29;20057;-93
2021/08/02 02:35:50;;;;;;;;;;;;;;;;;;;;;
2021/08/02 02:38:53;;;;;;;0.35;0.35;;;;;;;14.25;47.72;92199.47;4843817;29;20049;-92
2021/08/02 02:41:47;;;;;;;;;;;;;;;;;;;;;
2021/08/02 02:44:21;;;;;;;0.30;0.30;;;;;;;14.23;47.82;92181.38;4824400;29;20056;-93
2021/08/02 02:47:01;;;;;;;;;;;;;;;;;;;;;
2021/08/02 02:49:45;;;;;;;0.30;0.30;;;;;;;14.51;47.87;92225.72;4841984;29;20053;-93
2021/08/02 02:52:22;;;;;;;;;;;;;;;14.53;47.74;92237.47;4826856;29;20412;-92
2021/08/02 02:55:51;;;;;;;;;;;;;;;;;;;;;
2021/08/02 02:58:25;;;;;;;0.30;0.30;;;;;;;14.25;47.17;92187.09;4818435;29;20527;-93
2021/08/02 03:01:04;;;;;;;0.40;0.40;;;;;;;14.23;47.46;92189.25;4843171;29;20403;-91
2021/08/02 03:03:47;;;;;;;;;;;;;;;14.56;47.42;92225.56;4861277;29;20558;-91
2021/08/02 03:06:42;;;;;;;0.38;0.38;;;;;;;14.21;47.42;92175.63;4847166;29;19920;-91
2021/08/02 03:09:44;;;;;;;0.40;0.40;;;;;;;14.24;46.97;92177.63;4852882;29;20061;-93
2021/08/02 03:12:25;;;;;;;;;;;;;;;;;;;;;
2021/08/02 03:15:40;;;;;;;0.45;0.45;;;;;;;14.21;46.79;92177.47;4863047;29;20045;-92
2021/08/02 03:18:21;;;;;;;;;;;;;;;;;;;;;
2021/08/02 03:21:12;;;;;;;0.30;0.30;;;;;;;14.29;45.85;92184.59;4847412;29;20099;-93
2021/08/02 03:23:58;;;;;;;0.47;0.47;;;;;;;14.55;46.48;92218.75;4863276;29;20056;-92
2021/08/02 03:27:09;;;;;;;;;;;;;;;;;;;;;
2021/08/02 03:29:44;;;;;;;0.75;0.60;;;;;;;14.42;45.72;92188.09;4849145;29;20053;-94
2021/08/02 03:32:43;;;;;;;;;;;;;;;;;;;;;
2021/08/02 03:35:23;;;;;;;0.32;0.32;;;;;;;14.34;45.97;92201.00;4858163;29;20045;-94
2021/08/02 03:37:55;;;;;;;0.85;0.63;;;;;;;14.29;46.74;92200.38;4846467;29;20101;-95
2021/08/02 03:40:58;;;;;;;;;;;;;;;;;;;;;
2021/08/02 03:43:37;;;;;;;0.30;0.30;;;;;;;14.41;46.91;92233.94;4847863;29;20053;-92
2021/08/02 03:46:12;;;;;;;0.30;0.30;;;;;;;14.18;47.01;92205.22;4861805;29;20587;-93
2021/08/02 03:49:06;;;;;;;0.57;0.57;;;;;;;14.11;47.44;92213.59;4862172;29;20070;-93
2021/08/02 03:52:26;;;;;;;0.30;0.30;;;;;;;14.10;47.41;92211.28;4875713;29;20051;-93
2021/08/02 03:54:59;;;;;;;0.30;0.30;;;;;;;14.13;47.77;92223.81;4857490;29;20095;-93
2021/08/02 03:57:57;;;;;;;0.20;0.20;;;;;;;14.42;47.02;92265.22;4816346;29;20068;-93
2021/08/02 04:00:34;;;;;;;0.35;0.35;;;;;;;14.14;47.88;92226.13;4831844;29;20049;-93
2021/08/02 04:03:26;;;;;;;0.30;0.30;;;;;;;14.14;47.87;92235.91;4860445;29;20139;-94
2021/08/02 04:06:10;;;;;;;0.20;0.20;;;;;;;14.01;47.90;92226.31;4852790;29;20125;-93
2021/08/02 04:08:56;;;;;;;0.30;0.30;;;;;;;14.08;48.09;92245.03;4817390;29;20164;-91
2021/08/02 04:11:50;;;;;;;0.30;0.30;;;;;;;14.13;48.31;92263.28;4818069;29;20052;-92
2021/08/02 04:14:43;;;;;;;0.20;0.20;;;;;;;13.92;48.12;92235.00;4828719;29;20064;-93
2021/08/02 04:17:21;;;;;;;0.30;0.30;;;;;;;13.86;48.34;92235.47;4838824;29;20581;-95
2021/08/02 04:20:28;;;;;;;;;;;;;;;;;;;;;
2021/08/02 04:23:11;;;;;;;0.30;0.30;;;;;;;14.25;48.10;92289.75;4860111;29;20044;-94
2021/08/02 04:26:11;;;;;;;;;;;;;;;;;;;;;
2021/08/02 04:32:09;;;;;;;0.30;0.30;;;;;;;14.27;47.72;92289.44;4874766;29;20043;-94
2021/08/02 04:35:02;;;;;;;0.30;0.30;;;;;;;14.37;48.06;92307.53;4862314;29;20033;-93
2021/08/02 04:37:43;;;;;;;0.30;0.30;;;;;;;14.09;48.40;92260.50;4819591;29;20090;-93
2021/08/02 04:40:34;;;;;;;0.50;0.50;;;;;;;14.07;47.99;92251.38;4831592;29;20052;-93
2021/08/02 04:43:24;;;;;;;0.75;0.52;;;;;;;14.11;48.12;92265.47;4846269;29;20057;-94
2021/08/02 04:46:08;;;;;;;0.20;0.20;;;;;;;14.18;48.73;92276.28;4844972;29;20214;-94
2021/08/02 04:51:19;;;;;;;0.35;0.35;;;;;;;14.53;48.98;92319.13;4830167;29;20102;-80
2021/08/02 04:53:46;;;;;;;0.38;0.38;;;;;;;14.55;48.45;92324.88;4797274;29;20054;-80
2021/08/02 04:56:12;;;;;;;0.30;0.30;;;;;;;14.54;48.64;92312.78;4835139;29;20409;-81
2021/08/02 04:58:37;;;;;;;0.20;0.20;;;;;;;14.61;48.88;92317.56;4844687;29;20046;-80
2021/08/02 05:01:03;;;;;;;0.35;0.35;;;;;;;14.67;48.25;92318.19;4818287;29;20505;-80
2021/08/02 05:03:29;;;;;;;0.38;0.38;;;;;;;14.73;47.90;92312.44;4849284;29;20083;-80
2021/08/02 05:05:55;;;;;;;0.30;0.30;;;;;;;14.82;47.81;92312.41;4819444;29;20069;-78
2021/08/02 05:08:21;;;;;;;0.40;0.40;;;;;;;14.89;47.77;92317.19;4851213;29;20052;-80
2021/08/02 05:10:49;;;;;;;0.30;0.30;;;;;;;14.97;47.71;92316.34;4819344;29;20057;-80
2021/08/02 05:13:15;;;;;;;0.50;0.50;;;;;;;14.96;47.96;92315.59;4823004;29;20054;-81
2021/08/02 05:15:40;;;;;;;0.40;0.40;;;;;;;15.01;47.57;92321.78;4847397;29;20408;-80
2021/08/02 05:18:06;;;;;;;0.52;0.52;;;;;;;15.01;47.72;92319.91;4831084;29;20045;-79
2021/08/02 05:20:32;;;;;;;0.40;0.40;;;;;;;15.01;47.89;92313.88;4832636;29;20062;-80
2021/08/02 05:22:58;;;;;;;0.30;0.30;;;;;;;15.01;47.94;92314.63;4831758;29;20050;-79
2021/08/02 05:25:23;;;;;;;0.30;0.30;;;;;;;15.11;47.90;92319.56;4833621;29;20050;-79
2021/08/02 05:27:52;;;;;;;0.55;0.45;;;;;;;15.17;47.28;92320.91;4818297;29;20054;-80
2021/08/02 05:30:23;;;;;;;0.30;0.30;;;;;;;15.26;47.12;92330.66;4831729;29;20050;-80
2021/08/02 05:32:49;;;;;;;0.35;0.35;;;;;;;15.35;46.83;92318.19;4836462;29;20056;-79
2021/08/02 05:35:15;;;;;;;0.63;0.63;;;;;;;15.44;47.20;92326.06;4802099;29;20544;-80
2021/08/02 05:37:41;;;;;;;0.30;0.30;;;;;;;15.49;46.81;92333.78;4829853;29;20077;-80
2021/08/02 05:40:08;;;;;;;0.73;0.73;;;;;;;15.59;47.28;92334.19;4814616;29;20045;-80
2021/08/02 05:42:35;;;;;;;0.40;0.40;;;;;;;15.69;47.27;92335.66;4814710;29;20054;-80
2021/08/02 05:45:05;;;;;;;0.30;0.30;;;;;;;15.85;46.85;92335.13;4844288;29;20071;-80
2021/08/02 05:47:31;;;;;;;1.67;0.73;;;;;;;16.05;45.77;92338.84;4831809;29;20047;-80
2021/08/02 05:49:57;;;;;;;0.30;0.30;;;;;;;16.26;46.03;92342.25;4872920;29;20590;-80
2021/08/02 05:52:23;;;;;;;0.57;0.57;;;;;;;16.40;44.97;92340.09;4864347;29;20348;-81
2021/08/02 05:54:48;;;;;;;0.40;0.40;;;;;;;16.53;44.90;92340.16;4860681;29;20106;-80
2021/08/02 05:57:20;;;;;;;0.30;0.30;;;;;;;16.74;44.81;92358.59;4858388;29;20282;-79
2021/08/02 05:59:45;;;;;;;0.20;0.20;;;;;;;16.90;43.45;92351.59;4868547;29;20045;-80
2021/08/02 06:02:11;;;;;;;0.30;0.30;;;;;;;17.14;43.82;92345.56;4876837;29;20541;-80
2021/08/02 06:04:37;;;;;;;0.30;0.30;;;;;;;17.35;44.67;92350.00;4871416;29;20037;-79
2021/08/02 06:07:02;;;;;;;0.40;0.40;;;;;;;17.72;44.86;92355.25;4886079;29;20061;-79
2021/08/02 06:09:28;;;;;;;0.50;0.50;;;;;;;20.12;39.82;92356.81;4886314;29;20064;-81
2021/08/02 06:11:54;;;;;;;0.57;0.57;;;;;;;23.40;32.51;92352.50;4865161;29;20059;-80
2021/08/02 06:14:19;;;;;;;0.60;0.60;;;;;;;25.49;28.83;92346.97;4868347;29;20045;-81
2021/08/02 06:16:45;;;;;;;0.70;0.65;;;;;;;26.02;29.39;92356.91;4858967;29;20608;-80
2021/08/02 06:19:11;;;;;;;1.30;1.20;;;;;;;26.61;28.36;92364.44;4885833;29;20048;-81
2021/08/02 06:21:37;;;;;;;0.70;0.70;;;;;;;26.82;28.31;92366.28;4870476;29;20057;-80
2021/08/02 06:24:03;;;;;;;0.95;0.95;;;;;;;26.61;28.58;92366.34;4885653;29;20644;-80
2021/08/02 06:26:30;;;;;;;0.85;0.82;;;;;;;28.76;26.88;92370.91;4862669;29;20048;-81
2021/08/02 06:28:56;;;;;;;0.77;0.77;;;;;;;30.06;24.14;92375.22;4867903;29;20056;-80
2021/08/02 06:31:22;;;;;;;0.30;0.30;;;;;;;27.76;28.06;92363.78;4889652;29;20049;-80
2021/08/02 06:33:47;;;;;;;0.80;0.80;;;;;;;29.13;27.75;92374.69;4842344;29;20055;-81
2021/08/02 06:36:16;;;;;;;1.10;1.00;;;;;;;30.38;23.65;92380.13;4877797;29;20034;-81
2021/08/02 06:38:42;;;;;;;2.20;0.80;;;;;;;29.87;22.57;92372.06;4878172;29;20116;-81
2021/08/02 06:41:07;;;;;;;0.50;0.50;;;;;;;27.36;25.97;92385.59;4878430;29;20089;-81
2021/08/02 06:43:33;;;;;;;0.60;0.60;;;;;;;25.59;28.78;92382.97;4858066;29;20444;-81
2021/08/02 06:45:59;;;;;;;0.40;0.40;;;;;;;24.20;30.63;92384.75;4874820;29;20045;-80
2021/08/02 06:48:24;;;;;;;0.75;0.70;;;;;;;24.46;31.41;92391.78;4868716;29;20567;-80
2021/08/02 06:50:50;;;;;;;0.77;0.77;;;;;;;26.93;27.87;92398.44;4825762;29;20046;-81
2021/08/02 06:53:16;;;;;;;0.52;0.52;;;;;;;28.76;24.14;92392.44;4837460;29;20045;-80
2021/08/02 06:55:42;;;;;;;0.70;0.70;;;;;;;29.48;23.41;92383.47;4838420;29;20101;-80
2021/08/02 06:58:07;;;;;;;0.55;0.55;;;;;;;29.25;23.86;92389.56;4841762;29;20065;-81
2021/08/02 07:00:34;;;;;;;0.40;0.40;;;;;;;27.96;25.42;92394.38;4838841;29;20038;-79
2021/08/02 07:03:00;;;;;;;0.95;0.77;;;;;;;27.13;27.15;92390.66;4839097;29;20079;-77
2021/08/02 07:05:27;;;;;;;1.02;0.47;;;;;;;25.81;28.86;92400.56;4854778;29;20105;-79
2021/08/02 07:07:53;;;;;;;1.50;0.40;;;;;;;24.37;38.46;92401.31;4856489;29;20042;-79
2021/08/02 07:10:19;;;;;;;0.35;0.35;;;;;;;22.58;41.10;92406.53;4865933;29;20046;-78
2021/08/02 07:12:47;;;;;;;0.52;0.52;;;;;;;22.83;38.21;92411.41;4834421;29;20677;-79
2021/08/02 07:15:13;;;;;;;0.35;0.35;;;;;;;23.29;34.00;92400.47;4853511;29;20046;-80
2021/08/02 07:17:39;;;;;;;0.47;0.47;;;;;;;23.67;34.44;92409.22;4850281;29;20788;-79
2021/08/02 07:20:05;;;;;;;0.98;0.77;;;;;;;23.66;35.37;92407.66;4831879;29;20047;-78
2021/08/02 07:22:31;;;;;;;0.57;0.50;;;;;;;23.60;40.21;92407.25;4841206;29;20118;-80
2021/08/02 07:24:56;;;;;;;0.30;0.30;;;;;;;22.41;40.43;92409.78;4837843;29;20152;-79
2021/08/02 07:27:22;;;;;;;0.30;0.30;;;;;;;22.51;42.08;92413.69;4836036;29;20049;-78
2021/08/02 07:29:48;;;;;;;0.35;0.25;;;;;;;21.14;46.29;92408.94;4862799;29;20061;-79
2021/08/02 07:32:13;;;;;;;0.28;0.28;;;;;;;20.83;47.74;92419.75;4864937;29;20252;-81
2021/08/02 07:34:39;;;;;;;0.73;0.57;;;;;;;20.02;50.23;92409.72;4834860;29;20124;-80
2021/08/02 07:37:05;;;;;;;0.30;0.30;;;;;;;20.02;51.68;92405.19;4861481;29;20116;-79
2021/08/02 07:39:31;;;;;;;0.40;0.40;;;;;;;19.24;51.03;92412.84;4859937;29;20423;-78
2021/08/02 07:41:57;;;;;;;0.70;0.70;;;;;;;18.97;53.24;92413.66;4855821;29;20053;-78
2021/08/02 07:44:22;;;;;;;1.38;0.93;;;;;;;19.07;51.51;92421.09;4845443;29;20053;-79
2021/08/02 07:46:48;;;;;;;0.22;0.22;;;;;;;18.61;54.04;92413.44;4837845;29;20045;-79
2021/08/02 07:49:14;;;;;;;0.35;0.30;;;;;;;18.89;52.51;92424.09;4876380;29;20064;-79
2021/08/02 07:51:40;;;;;;;0.30;0.30;;;;;;;19.06;51.45;92423.00;4868773;29;20532;-80
2021/08/02 07:54:06;;;;;;;0.38;0.38;;;;;;;19.35;50.79;92423.72;4869701;29;20044;-81
2021/08/02 07:56:33;;;;;;;0.22;0.22;;;;;;;19.42;51.67;92431.09;4887719;29;20069;-80
2021/08/02 07:58:59;;;;;;;0.25;0.25;;;;;;;19.06;51.87;92423.00;4859134;29;20079;-80
2021/08/02 08:01:25;;;;;;;0.20;0.20;;;;;;;19.24;50.79;92434.06;4906498;29;20118;-80
2021/08/02 08:03:51;;;;;;;0.30;0.30;;;;;;;19.28;51.62;92432.28;4906851;29;20052;-80
2021/08/02 08:06:16;;;;;;;0.30;0.30;;;;;;;18.66;51.34;92426.44;4906982;29;20045;-80
2021/08/02 08:08:42;;;;;;;1.05;0.55;;;;;;;18.74;51.64;92427.44;4872311;29;20085;-79
2021/08/02 08:11:09;;;;;;;0.47;0.47;;;;;;;18.86;53.02;92435.34;4900592;29;20055;-80
2021/08/02 08:13:36;;;;;;;0.20;0.20;;;;;;;18.78;53.06;92436.28;4906378;29;20076;-80
2021/08/02 08:16:02;;;;;;;0.47;0.43;;;;;;;18.77;51.82;92431.28;4905238;29;20144;-80
2021/08/02 08:18:29;;;;;;;1.02;0.43;;;;;;;18.90;52.29;92436.22;4886093;29;20108;-80
2021/08/02 08:20:58;;;;;;;0.30;0.30;;;;;;;18.78;51.58;92443.44;4871324;29;20049;-80
2021/08/02 08:23:25;;;;;;;0.38;0.38;;;;;;;19.13;51.26;92444.41;4855354;29;20057;-81
2021/08/02 08:25:51;;;;;;;0.30;0.30;;;;;;;18.91;52.51;92437.78;4897860;29;20065;-78
2021/08/02 08:28:16;;;;;;;0.35;0.35;;;;;;;18.70;52.45;92459.13;4906288;29;20044;-78
2021/08/02 08:30:42;;;;;;;0.52;0.30;;;;;;;19.26;50.51;92457.59;4877268;29;20048;-79
2021/08/02 08:33:08;;;;;;;0.30;0.30;;;;;;;18.92;50.21;92460.53;4900205;29;20123;-78
2021/08/02 08:35:37;;;;;;;0.28;0.28;;;;;;;19.27;50.02;92454.63;4889618;29;20087;-78
2021/08/02 08:38:03;;;;;;;0.20;0.20;;;;;;;19.36;45.72;92462.41;4905769;29;20053;-79
2021/08/02 08:40:32;;;;;;;0.20;0.20;;;;;;;19.61;48.95;92465.69;4893066;29;20473;-80
2021/08/02 08:42:57;;;;;;;0.30;0.30;;;;;;;19.01;50.04;92463.03;4888733;29;20049;-78
2021/08/02 08:45:23;;;;;;;0.30;0.30;;;;;;;18.70;49.47;92471.63;4906186;29;20125;-78
2021/08/02 08:47:51;;;;;;;1.65;0.45;;;;;;;18.90;52.58;92481.31;4906526;29;20049;-78
2021/08/02 08:50:18;;;;;;;1.23;0.80;;;;;;;18.86;51.60;92472.47;4902282;29;20053;-79
2021/08/02 08:52:44;;;;;;;1.15;1.08;;;;;;;19.28;53.56;92482.69;4893942;29;20048;-78
2021/08/02 08:55:13;;;;;;;0.30;0.30;;;;;;;19.61;48.66;92473.66;4842573;29;20075;-80
2021/08/02 08:57:40;;;;;;;0.30;0.30;;;;;;;19.88;44.01;92479.22;4905239;29;20059;-79
2021/08/02 09:00:18;;;;;;;0.50;0.50;;;;;;;19.86;49.68;92484.13;4881023;29;20044;-78
2021/08/02 09:02:44;;;;;;;0.40;0.40;;;;;;;19.79;48.50;92486.59;4887432;29;20040;-80
2021/08/02 09:05:10;;;;;;;0.77;0.70;;;;;;;19.36;53.17;92488.94;4886987;29;20033;-81
2021/08/02 09:07:41;;;;;;;0.40;0.40;;;;;;;19.16;52.33;92484.63;4871108;29;20233;-78
2021/08/02 09:10:10;;;;;;;0.47;0.47;;;;;;;19.60;51.88;92488.03;4888662;29;20044;-81
2021/08/02 09:12:57;;;;;;;0.75;0.50;;;;;;;19.93;48.46;92492.28;4870971;29;20053;-80
2021/08/02 09:15:32;;;;;;;0.20;0.20;;;;;;;20.36;48.40;92485.28;4869001;29;20056;-78
2021/08/02 09:17:58;;;;;;;0.75;0.60;;;;;;;20.54;44.64;92483.75;4880587;29;20068;-78
2021/08/02 09:20:25;;;;;;;0.80;0.75;;;;;;;20.43;46.10;92485.41;4899077;29;20056;-81
2021/08/02 09:22:52;;;;;;;0.20;0.20;;;;;;;20.45;46.21;92477.88;4902425;29;20142;-81
2021/08/02 09:25:20;;;;;;;0.30;0.30;;;;;;;20.39;51.62;92480.03;4892189;29;20028;-80
2021/08/02 09:27:47;;;;;;;0.20;0.20;;;;;;;20.35;48.25;92483.72;4901960;29;20506;-80
2021/08/02 09:30:18;;;;;;;0.25;0.25;;;;;;;19.92;48.24;92483.50;4898456;29;20107;-80
2021/08/02 09:32:46;;;;;;;0.30;0.30;;;;;;;20.06;48.52;92480.44;4859758;29;20068;-80
2021/08/02 09:35:13;;;;;;;0.35;0.35;;;;;;;20.06;50.44;92480.44;4869177;29;20045;-82
2021/08/02 09:37:40;;;;;;;0.55;0.52;;;;;;;20.32;50.88;92479.88;4870244;29;20113;-80
2021/08/02 09:40:07;;;;;;;0.45;0.45;;;;;;;20.32;45.79;92479.09;4869796;29;20116;-81
2021/08/02 09:42:33;;;;;;;0.20;0.20;;;;;;;19.98;46.60;92465.44;4870078;29;20072;-80
2021/08/02 09:45:00;;;;;;;0.30;0.30;;;;;;;20.49;49.29;92484.03;4888325;29;20049;-79
2021/08/02 09:47:30;;;;;;;0.25;0.25;;;;;;;20.69;44.64;92478.75;4887183;29;20105;-81
2021/08/02 09:49:56;;;;;;;1.25;0.32;;;;;;;20.83;47.08;92465.75;4903587;29;20065;-79
2021/08/02 09:52:21;;;;;;;0.30;0.30;;;;;;;20.83;44.33;92476.41;4875479;29;20052;-78
2021/08/02 09:54:47;;;;;;;0.20;0.20;;;;;;;20.53;46.77;92476.13;4872541;29;20064;-78
2021/08/02 09:57:13;;;;;;;0.30;0.30;;;;;;;20.31;42.60;92485.53;4889363;29;20124;-82
2021/08/02 09:59:43;;;;;;;0.20;0.20;;;;;;;20.43;46.86;92463.38;4856470;29;20371;-80
2021/08/02 10:02:09;;;;;;;1.95;0.70;;;;;;;21.03;47.86;92484.38;4842380;29;20144;-79
2021/08/02 10:04:35;;;;;;;1.13;0.90;;;;;;;20.65;43.69;92476.03;4888754;29;20049;-79
2021/08/02 10:07:06;;;;;;;0.30;0.28;;;;;;;21.02;44.89;92482.84;4901381;29;20511;-78
2021/08/02 10:09:33;;;;;;;0.63;0.40;;;;;;;20.37;44.15;92481.47;4905713;29;20056;-79
2021/08/02 10:11:58;;;;;;;0.30;0.30;;;;;;;20.96;45.19;92475.16;4899642;29;20633;-78
2021/08/02 10:14:33;;;;;;;0.65;0.52;;;;;;;21.20;47.13;92471.41;4887124;29;20044;-80
2021/08/02 10:17:08;;;;;;;0.20;0.20;;;;;;;21.03;46.37;92468.41;4888133;29;20061;-78
2021/08/02 10:19:53;;;;;;;0.20;0.20;;;;;;;21.22;47.14;92468.38;4871862;29;20445;-80
2021/08/02 10:22:19;;;;;;;0.30;0.30;;;;;;;20.86;44.94;92470.38;4870327;29;20053;-78
2021/08/02 10:24:54;;;;;;;1.15;0.88;;;;;;;21.12;45.84;92472.41;4900792;29;20044;-81
2021/08/02 10:27:27;;;;;;;0.40;0.40;;;;;;;21.20;46.42;92474.06;4906971;29;20533;-80
2021/08/02 10:29:54;;;;;;;0.52;0.52;;;;;;;20.75;45.66;92474.72;4887905;29;20522;-78
2021/08/02 10:32:25;;;;;;;0.52;0.52;;;;;;;21.15;45.52;92466.38;4886955;29;20049;-79
2021/08/02 10:34:56;;;;;;;1.35;1.17;;;;;;;21.36;44.12;92481.94;4869449;29;20056;-79
2021/08/02 10:37:33;;;;;;;0.25;0.25;;;;;;;21.27;44.98;92465.44;4870368;29;20052;-79
2021/08/02 10:40:08;;;;;;;0.22;0.22;;;;;;;21.50;44.48;92467.38;4886400;29;20104;-79
2021/08/02 10:42:51;;;;;;;0.22;0.22;;;;;;;20.95;44.07;92478.91;4886301;29;20046;-79
2021/08/02 10:45:33;;;;;;;1.30;0.40;;;;;;;21.45;43.12;92479.09;4885779;29;20037;-79
2021/08/02 10:48:00;;;;;;;0.38;0.38;;;;;;;21.40;42.85;92477.50;4885862;29;20053;-81
2021/08/02 10:50:31;;;;;;;0.40;0.40;;;;;;;21.24;44.39;92474.13;4902934;29;20514;-79
2021/08/02 10:52:57;;;;;;;0.65;0.60;;;;;;;21.55;44.86;92472.44;4903753;29;20144;-80
2021/08/02 10:55:29;;;;;;;0.30;0.30;;;;;;;21.33;42.86;92476.56;4900225;29;20072;-79
2021/08/02 10:57:59;;;;;;;0.38;0.38;;;;;;;21.57;43.23;92475.47;4868139;29;20056;-79
2021/08/02 11:00:26;;;;;;;0.40;0.40;;;;;;;21.69;44.68;92478.00;4885442;29;20045;-79
2021/08/02 11:02:54;;;;;;;1.35;0.65;;;;;;;21.49;44.75;92474.59;4868333;29;20645;-78
2021/08/02 11:05:20;;;;;;;0.30;0.30;;;;;;;21.90;46.13;92484.78;4895620;29;20108;-79
2021/08/02 11:07:47;;;;;;;0.43;0.43;;;;;;;21.68;46.30;92476.44;4886676;29;20081;-80
2021/08/02 11:10:16;;;;;;;0.40;0.40;;;;;;;21.91;44.60;92478.31;4870599;29;20080;-79
2021/08/02 11:12:46;;;;;;;0.30;0.30;;;;;;;21.81;45.35;92472.47;4887397;29;20087;-81
2021/08/02 11:15:13;;;;;;;0.32;0.30;;;;;;;21.64;43.34;92470.31;4890283;29;20048;-80
2021/08/02 11:17:51;;;;;;;0.38;0.38;;;;;;;21.49;40.59;92468.50;4896102;29;20061;-79
2021/08/02 11:20:17;;;;;;;0.30;0.30;;;;;;;21.71;39.90;92467.00;4872385;29;20112;-79
2021/08/02 11:22:50;;;;;;;0.40;0.40;;;;;;;21.83;41.84;92475.53;4883254;29;20056;-80
2021/08/02 11:25:23;;;;;;;0.45;0.45;;;;;;;21.87;42.61;92477.53;4868066;29;20096;-80
2021/08/02 11:27:58;;;;;;;0.50;0.50;;;;;;;21.23;42.24;92472.56;4885644;29;20069;-78
2021/08/02 11:30:25;;;;;;;0.80;0.73;;;;;;;21.20;42.67;92473.28;4884351;29;20044;-79
2021/08/02 11:32:52;;;;;;;0.43;0.43;;;;;;;21.48;39.07;92473.06;4883810;29;20443;-79
2021/08/02 11:35:18;;;;;;;0.52;0.52;;;;;;;21.61;42.58;92471.75;4885991;29;20056;-79
2021/08/02 11:37:50;;;;;;;0.65;0.65;;;;;;;21.75;41.88;92471.25;4896111;29;20119;-80
2021/08/02 11:40:18;;;;;;;0.43;0.43;;;;;;;22.21;43.68;92476.53;4898165;29;20048;-80
2021/08/02 11:42:47;;;;;;;1.45;0.70;;;;;;;21.93;42.71;92470.75;4886097;29;20060;-80
2021/08/02 11:45:15;;;;;;;0.30;0.30;;;;;;;21.89;42.33;92472.59;4886941;29;20053;-78
2021/08/02 11:47:44;;;;;;;0.38;0.38;;;;;;;21.68;40.51;92465.78;4867486;29;20049;-78
2021/08/02 11:50:12;;;;;;;0.30;0.30;;;;;;;22.01;43.24;92467.84;4896556;29;20044;-79
2021/08/02 11:52:38;;;;;;;0.20;0.20;;;;;;;22.01;42.70;92475.81;4868167;29;20132;-79
2021/08/02 11:55:10;;;;;;;0.43;0.43;;;;;;;22.42;42.53;92459.31;4893642;29;20049;-79
2021/08/02 11:57:36;;;;;;;0.85;0.85;;;;;;;21.82;38.11;92468.69;4903906;29;20045;-80
2021/08/02 12:00:18;;;;;;;0.35;0.35;;;;;;;22.18;38.44;92477.25;4869353;29;20041;-79
2021/08/02 12:02:48;;;;;;;0.73;0.60;;;;;;;21.64;35.47;92464.97;4884968;29;20056;-82
2021/08/02 12:05:30;;;;;;;0.30;0.30;;;;;;;22.17;37.70;92474.91;4862825;29;20045;-78
2021/08/02 12:08:10;;;;;;;0.55;0.38;;;;;;;22.24;35.70;92475.81;4883726;29;20064;-80
2021/08/02 12:10:36;;;;;;;1.63;1.05;;;;;;;22.38;40.14;92466.47;4883550;29;20131;-79
2021/08/02 12:13:05;;;;;;;0.30;0.30;;;;;;;22.96;39.53;92476.75;4871426;29;20083;-80
2021/08/02 12:15:33;;;;;;;0.28;0.28;;;;;;;22.85;37.43;92473.19;4884452;29;20077;-79
2021/08/02 12:17:59;;;;;;;0.70;0.50;;;;;;;23.13;38.61;92475.47;4901946;29;20045;-79
2021/08/02 12:20:38;;;;;;;0.57;0.57;;;;;;;23.27;40.61;92470.28;4899698;29;20052;-79
2021/08/02 12:23:06;;;;;;;0.52;0.52;;;;;;;22.77;41.37;92469.69;4868761;29;20071;-81
2021/08/02 12:25:46;;;;;;;0.28;0.28;;;;;;;22.54;41.27;92475.09;4902917;29;20515;-79
2021/08/02 12:28:12;;;;;;;1.10;0.68;;;;;;;22.47;43.87;92458.97;4867053;29;20075;-78
2021/08/02 12:30:39;;;;;;;0.50;0.50;;;;;;;22.46;42.70;92470.78;4873019;29;20044;-79
2021/08/02 12:33:06;;;;;;;0.50;0.50;;;;;;;22.35;43.27;92459.97;4879768;29;20048;-79
2021/08/02 12:35:32;;;;;;;0.30;0.30;;;;;;;22.16;44.35;92460.84;4857604;29;20057;-78
2021/08/02 12:37:59;;;;;;;0.63;0.45;;;;;;;22.27;41.43;92457.56;4884105;29;20048;-79
2021/08/02 12:40:25;;;;;;;0.88;0.73;;;;;;;22.58;43.56;92462.56;4883224;29;20053;-79
2021/08/02 12:42:51;;;;;;;0.82;0.55;;;;;;;22.63;42.80;92459.59;4852311;29;20041;-79